createdAt,value
2022-08-17T00:00:12.806Z,12.43
2022-08-17T00:02:59.697Z,11.93
2022-08-17T00:05:29.175Z,11.57
2022-08-17T00:07:56.944Z,12.52
2022-08-17T00:10:25.176Z,11.68
2022-08-17T00:12:52.749Z,10.55
2022-08-17T00:15:21.615Z,11.20
2022-08-17T00:17:50.689Z,10.75
2022-08-17T00:20:18.973Z,10.60
2022-08-17T00:22:50.644Z,11.02
2022-08-17T00:25:20.003Z,10.80
2022-08-17T00:27:47.740Z,11.40
2022-08-17T00:30:15.404Z,10.43
2022-08-17T00:33:23.146Z,10.88
2022-08-17T00:35:34.168Z,10.50
2022-08-17T00:38:01.673Z,11.88
2022-08-17T00:40:44.563Z,12.20
2022-08-17T00:43:19.800Z,11.50
2022-08-17T00:45:47.609Z,10.95
2022-08-17T00:48:29.330Z,10.90
2022-08-17T00:51:11.777Z,10.93
2022-08-17T00:53:41.946Z,10.25
2022-08-17T00:58:38.595Z,10.10
2022-08-17T01:01:07.870Z,9.05
2022-08-17T01:03:36.028Z,9.77
2022-08-17T01:06:04.777Z,9.73
2022-08-17T01:08:33.827Z,10.32
2022-08-17T01:11:02.525Z,10.07
2022-08-17T01:13:40.774Z,10.68
2022-08-17T01:16:22.604Z,10.70
2022-08-17T01:18:54.279Z,10.55
2022-08-17T01:21:47.672Z,10.00
2022-08-17T01:24:15.811Z,10.40
2022-08-17T01:26:43.604Z,10.15
2022-08-17T01:29:11.540Z,10.48
2022-08-17T01:31:52.815Z,10.20
2022-08-17T01:34:20.756Z,10.30
2022-08-17T01:36:49.587Z,10.65
2022-08-17T01:39:37.253Z,10.40
2022-08-17T01:42:24.759Z,10.15
2022-08-17T01:44:58.967Z,11.07
2022-08-17T01:47:26.283Z,9.85
2022-08-17T01:49:53.805Z,10.90
2022-08-17T01:52:22.026Z,10.60
2022-08-17T01:54:51.491Z,10.27
2022-08-17T01:57:18.838Z,10.00
2022-08-17T01:59:46.125Z,10.32
2022-08-17T02:02:13.335Z,10.63
2022-08-17T02:04:58.773Z,10.38
2022-08-17T02:07:27.008Z,10.43
2022-08-17T02:09:56.333Z,10.93
2022-08-17T02:12:37.802Z,11.43
2022-08-17T02:15:10.226Z,10.98
2022-08-17T02:17:37.527Z,10.98
2022-08-17T02:20:05.384Z,10.90
2022-08-17T02:22:32.746Z,12.02
2022-08-17T02:25:02.336Z,10.68
2022-08-17T02:27:29.903Z,11.13
2022-08-17T02:29:57.572Z,11.10
2022-08-17T02:32:27.940Z,11.18
2022-08-17T02:34:57.464Z,11.15
2022-08-17T02:37:25.757Z,11.10
2022-08-17T02:39:53.223Z,11.50
2022-08-17T02:42:33.834Z,11.90
2022-08-17T02:45:02.333Z,11.20
2022-08-17T02:47:29.842Z,11.57
2022-08-17T02:49:57.449Z,10.60
2022-08-17T02:52:43.291Z,10.85
2022-08-17T02:55:19.022Z,10.38
2022-08-17T02:57:46.653Z,10.50
2022-08-17T03:00:21.281Z,10.27
2022-08-17T03:02:49.339Z,10.32
2022-08-17T03:05:18.951Z,10.43
2022-08-17T03:07:46.251Z,10.10
2022-08-17T03:10:14.561Z,9.80
2022-08-17T03:12:43.303Z,9.98
2022-08-17T03:15:14.020Z,10.20
2022-08-17T03:17:41.517Z,9.38
2022-08-17T03:20:09.334Z,9.52
2022-08-17T03:22:42.907Z,9.55
2022-08-17T03:25:24.104Z,9.55
2022-08-17T03:27:51.780Z,9.85
2022-08-17T03:30:19.157Z,9.57
2022-08-17T03:32:50.597Z,9.63
2022-08-17T03:35:20.939Z,9.25
2022-08-17T03:37:48.303Z,9.52
2022-08-17T03:40:41.811Z,9.45
2022-08-17T03:43:15.469Z,9.60
2022-08-17T03:46:01.913Z,10.00
2022-08-17T03:48:47.814Z,9.65
2022-08-17T03:51:40.860Z,10.60
2022-08-17T03:54:27.677Z,9.45
2022-08-17T03:57:06.357Z,9.85
2022-08-17T03:59:34.474Z,9.27
2022-08-17T04:02:08.995Z,9.55
2022-08-17T04:04:36.831Z,9.88
2022-08-17T04:07:04.762Z,9.13
2022-08-17T04:09:32.035Z,9.13
2022-08-17T04:12:01.215Z,9.52
2022-08-17T04:14:45.995Z,9.60
2022-08-17T04:17:24.719Z,9.52
2022-08-17T04:19:52.487Z,9.50
2022-08-17T04:22:33.379Z,9.38
2022-08-17T04:25:21.607Z,9.90
2022-08-17T04:27:48.929Z,9.88
2022-08-17T04:30:16.333Z,9.90
2022-08-17T04:33:05.849Z,9.80
2022-08-17T04:35:42.923Z,9.93
2022-08-17T04:38:16.229Z,9.32
2022-08-17T04:41:02.625Z,10.25
2022-08-17T04:43:32.020Z,10.00
2022-08-17T04:46:05.692Z,10.27
2022-08-17T04:48:45.785Z,10.35
2022-08-17T04:51:16.434Z,10.27
2022-08-17T04:53:46.587Z,10.27
2022-08-17T04:56:23.233Z,10.45
2022-08-17T04:58:52.377Z,10.15
2022-08-17T05:01:23.739Z,10.60
2022-08-17T05:04:18.392Z,10.40
2022-08-17T05:06:49.632Z,10.98
2022-08-17T05:09:17.867Z,11.50
2022-08-17T05:11:46.033Z,10.45
2022-08-17T05:14:14.509Z,10.43
2022-08-17T05:16:41.766Z,10.52
2022-08-17T05:19:09.028Z,10.48
2022-08-17T05:21:36.429Z,10.75
2022-08-17T05:24:06.023Z,11.15
2022-08-17T05:26:44.905Z,10.73
2022-08-17T05:29:12.450Z,10.98
2022-08-17T05:31:39.712Z,11.77
2022-08-17T05:34:07.390Z,11.70
2022-08-17T05:36:41.592Z,11.65
2022-08-17T05:39:15.974Z,10.90
2022-08-17T05:41:46.597Z,11.50
2022-08-17T05:44:14.070Z,11.80
2022-08-17T05:46:44.080Z,11.75
2022-08-17T05:49:12.276Z,11.48
2022-08-17T05:51:39.653Z,11.32
2022-08-17T05:54:19.141Z,11.10
2022-08-17T05:57:10.948Z,11.38
2022-08-17T05:59:52.089Z,11.23
2022-08-17T06:02:47.035Z,10.82
2022-08-17T06:05:25.881Z,11.02
2022-08-17T06:08:06.890Z,11.23
2022-08-17T06:10:34.080Z,13.80
2022-08-17T06:13:14.526Z,15.13
2022-08-17T06:15:41.798Z,17.23
2022-08-17T06:18:11.607Z,13.82
2022-08-17T06:21:13.797Z,13.15
2022-08-17T06:23:45.066Z,12.88
2022-08-17T06:26:20.613Z,12.68
2022-08-17T06:28:55.571Z,13.32
2022-08-17T06:31:28.036Z,11.80
2022-08-17T06:34:00.867Z,12.32
2022-08-17T06:36:40.471Z,13.77
2022-08-17T06:39:29.631Z,13.25
2022-08-17T06:42:54.882Z,12.52
2022-08-17T06:45:18.243Z,13.00
2022-08-17T06:48:00.860Z,11.98
2022-08-17T06:50:38.271Z,13.23
2022-08-17T06:53:11.170Z,12.60
2022-08-17T06:56:12.186Z,12.23
2022-08-17T06:58:40.967Z,12.13
2022-08-17T07:03:41.731Z,11.90
2022-08-17T07:06:18.613Z,11.30
2022-08-17T07:08:59.003Z,11.52
2022-08-17T07:11:27.510Z,12.52
2022-08-17T07:14:06.137Z,11.82
2022-08-17T07:16:47.142Z,14.18
2022-08-17T07:19:17.301Z,15.93
2022-08-17T07:24:39.256Z,13.85
2022-08-17T07:27:12.687Z,14.48
2022-08-17T07:30:06.770Z,14.23
2022-08-17T07:32:38.165Z,11.95
2022-08-17T07:35:16.493Z,11.93
2022-08-17T07:37:50.927Z,11.48
2022-08-17T07:40:31.266Z,11.30
2022-08-17T07:43:23.790Z,11.38
2022-08-17T07:46:15.937Z,10.50
2022-08-17T07:48:46.464Z,11.70
2022-08-17T07:51:26.411Z,10.40
2022-08-17T07:54:13.175Z,11.60
2022-08-17T07:56:56.585Z,14.60
2022-08-17T07:59:35.747Z,12.45
2022-08-17T08:02:31.087Z,11.85
2022-08-17T08:05:14.975Z,11.82
2022-08-17T08:08:01.425Z,12.73
2022-08-17T08:10:36.264Z,11.75
2022-08-17T08:13:23.191Z,10.50
2022-08-17T08:15:54.595Z,10.45
2022-08-17T08:18:54.368Z,11.70
2022-08-17T08:21:46.434Z,13.68
2022-08-17T08:24:34.794Z,11.60
2022-08-17T08:27:08.136Z,11.52
2022-08-17T08:30:00.948Z,11.00
2022-08-17T08:32:50.429Z,10.75
2022-08-17T08:35:37.246Z,13.02
2022-08-17T08:38:28.264Z,12.77
2022-08-17T08:41:17.810Z,12.73
2022-08-17T08:44:19.113Z,12.25
2022-08-17T08:47:35.571Z,11.30
2022-08-17T08:50:34.114Z,13.43
2022-08-17T08:53:39.686Z,12.25
2022-08-17T08:56:12.452Z,11.65
2022-08-17T08:58:52.600Z,12.52
2022-08-17T09:04:25.404Z,12.35
2022-08-17T09:07:24.220Z,12.05
2022-08-17T09:10:11.127Z,11.90
2022-08-17T09:12:50.560Z,10.90
2022-08-17T09:15:22.628Z,11.48
2022-08-17T09:18:14.703Z,11.38
2022-08-17T09:20:50.319Z,11.45
2022-08-17T09:23:42.355Z,12.18
2022-08-17T09:26:14.554Z,15.05
2022-08-17T09:28:45.040Z,16.33
2022-08-17T09:31:18.157Z,13.00
2022-08-17T09:33:47.965Z,13.00
2022-08-17T09:36:25.747Z,12.88
2022-08-17T09:39:00.162Z,13.95
2022-08-17T09:41:48.878Z,11.45
2022-08-17T09:44:27.290Z,11.80
2022-08-17T09:46:59.968Z,11.80
2022-08-17T09:49:27.133Z,12.70
2022-08-17T09:51:58.883Z,14.68
2022-08-17T09:54:39.268Z,12.43
2022-08-17T09:57:29.946Z,12.20
2022-08-17T10:00:15.982Z,11.85
2022-08-17T10:03:16.142Z,12.65
2022-08-17T10:05:57.158Z,13.77
2022-08-17T10:08:32.376Z,12.40
2022-08-17T10:11:33.462Z,17.25
2022-08-17T10:14:36.869Z,13.05
2022-08-17T10:17:23.040Z,12.80
2022-08-17T10:19:50.305Z,14.05
2022-08-17T10:22:53.030Z,13.27
2022-08-17T10:25:53.941Z,12.82
2022-08-17T10:28:29.386Z,13.60
2022-08-17T10:31:30.763Z,13.38
2022-08-17T10:33:54.178Z,12.65
2022-08-17T10:36:55.052Z,12.35
2022-08-17T10:39:31.336Z,13.05
2022-08-17T10:42:04.357Z,12.35
2022-08-17T10:44:42.348Z,12.20
2022-08-17T10:47:14.513Z,12.68
2022-08-17T10:49:49.714Z,15.32
2022-08-17T10:52:20.083Z,15.70
2022-08-17T10:54:50.394Z,23.73
2022-08-17T10:57:31.680Z,22.48
2022-08-17T10:59:59.657Z,26.80
2022-08-17T11:02:31.483Z,21.40
2022-08-17T11:05:16.999Z,19.90
2022-08-17T11:08:05.330Z,16.70
2022-08-17T11:10:58.340Z,14.73
2022-08-17T11:13:31.412Z,14.45
2022-08-17T11:16:27.695Z,14.85
2022-08-17T11:19:26.396Z,15.63
2022-08-17T11:22:23.010Z,15.43
2022-08-17T11:24:52.677Z,15.18
2022-08-17T11:27:27.081Z,15.55
2022-08-17T11:30:20.655Z,17.25
2022-08-17T11:32:55.815Z,14.90
2022-08-17T11:35:24.387Z,14.35
2022-08-17T11:38:05.024Z,15.40
2022-08-17T11:40:46.416Z,14.35
2022-08-17T11:43:21.358Z,14.68
2022-08-17T11:45:56.081Z,14.50
2022-08-17T11:49:01.473Z,14.88
2022-08-17T11:51:58.369Z,13.73
2022-08-17T11:54:36.598Z,14.77
2022-08-17T11:57:25.967Z,14.38
2022-08-17T11:59:55.342Z,14.35
2022-08-17T12:02:31.702Z,14.63
2022-08-17T12:05:02.597Z,16.13
2022-08-17T12:07:32.665Z,15.90
2022-08-17T12:10:00.552Z,14.43
2022-08-17T12:12:33.019Z,16.08
2022-08-17T12:15:10.930Z,15.50
2022-08-17T12:17:52.057Z,12.38
2022-08-17T12:20:42.314Z,13.93
2022-08-17T12:23:11.063Z,13.45
2022-08-17T12:26:10.195Z,15.15
2022-08-17T12:28:39.279Z,13.13
2022-08-17T12:31:11.594Z,12.55
2022-08-17T12:33:44.138Z,13.10
2022-08-17T12:36:15.125Z,13.93
2022-08-17T12:38:51.229Z,13.23
2022-08-17T12:41:30.916Z,13.75
2022-08-17T12:44:03.872Z,22.23
2022-08-17T12:46:46.721Z,15.88
2022-08-17T12:49:15.265Z,12.90
2022-08-17T12:51:46.841Z,11.63
2022-08-17T12:54:28.529Z,12.77
2022-08-17T12:56:56.112Z,12.13
2022-08-17T12:59:30.451Z,12.75
2022-08-17T13:01:57.984Z,13.55
2022-08-17T13:04:26.587Z,12.57
2022-08-17T13:06:59.925Z,13.13
2022-08-17T13:09:36.029Z,12.63
2022-08-17T13:12:08.485Z,13.05
2022-08-17T13:14:36.350Z,12.63
2022-08-17T13:17:08.552Z,12.95
2022-08-17T13:19:48.507Z,11.48
2022-08-17T13:22:15.837Z,12.43
2022-08-17T13:24:55.060Z,12.68
2022-08-17T13:27:24.551Z,11.60
2022-08-17T13:29:58.004Z,11.50
2022-08-17T13:32:36.100Z,10.63
2022-08-17T13:35:32.386Z,10.38
2022-08-17T13:38:09.907Z,9.40
2022-08-17T13:40:41.652Z,8.73
2022-08-17T13:43:10.307Z,8.20
2022-08-17T13:45:45.469Z,9.60
2022-08-17T13:48:32.717Z,8.43
2022-08-17T13:51:00.007Z,8.32
2022-08-17T13:53:50.589Z,8.88
2022-08-17T13:56:38.746Z,8.20
2022-08-17T13:59:16.947Z,8.60
2022-08-17T14:02:05.724Z,11.27
2022-08-17T14:04:33.956Z,8.52
2022-08-17T14:07:11.500Z,7.72
2022-08-17T14:09:47.953Z,8.80
2022-08-17T14:12:17.682Z,12.55
2022-08-17T14:14:45.267Z,13.90
2022-08-17T14:17:12.798Z,7.97
2022-08-17T14:19:40.085Z,7.13
2022-08-17T14:22:11.597Z,7.72
2022-08-17T14:24:45.013Z,8.75
2022-08-17T14:27:12.549Z,7.18
2022-08-17T14:29:41.227Z,6.05
2022-08-17T14:32:17.984Z,5.72
2022-08-17T14:34:46.161Z,7.35
2022-08-17T14:37:13.529Z,7.80
2022-08-17T14:39:41.007Z,6.20
2022-08-17T14:42:09.432Z,6.05
2022-08-17T14:44:38.241Z,6.00
2022-08-17T14:47:07.301Z,6.55
2022-08-17T14:49:34.508Z,5.97
2022-08-17T14:52:02.167Z,6.32
2022-08-17T14:54:34.069Z,6.53
2022-08-17T14:57:25.154Z,7.00
2022-08-17T14:59:54.942Z,7.30
2022-08-17T15:02:30.074Z,6.95
2022-08-17T15:05:00.092Z,7.00
2022-08-17T15:07:30.743Z,6.80
2022-08-17T15:10:02.083Z,6.82
2022-08-17T15:12:33.775Z,7.43
2022-08-17T15:15:04.813Z,6.80
2022-08-17T15:17:44.429Z,6.95
2022-08-17T15:20:19.271Z,6.93
2022-08-17T15:22:49.842Z,7.80
2022-08-17T15:25:19.184Z,6.88
2022-08-17T15:27:47.422Z,7.13
2022-08-17T15:30:15.752Z,7.22
2022-08-17T15:32:46.875Z,7.10
2022-08-17T15:35:29.447Z,6.75
2022-08-17T15:38:06.159Z,7.47
2022-08-17T15:40:37.846Z,6.60
2022-08-17T15:43:11.465Z,6.70
2022-08-17T15:45:39.723Z,6.65
2022-08-17T15:48:07.385Z,6.30
2022-08-17T15:50:35.430Z,6.65
2022-08-17T15:53:04.762Z,6.72
2022-08-17T15:55:33.398Z,6.22
2022-08-17T15:58:01.113Z,5.90
2022-08-17T16:00:29.332Z,6.75
2022-08-17T16:03:46.107Z,6.15
2022-08-17T16:05:47.277Z,5.78
2022-08-17T16:08:20.110Z,5.78
2022-08-17T16:10:49.563Z,5.53
2022-08-17T16:13:18.282Z,5.68
2022-08-17T16:15:54.816Z,5.97
2022-08-17T16:18:27.404Z,5.72
2022-08-17T16:23:22.420Z,5.35
2022-08-17T16:25:53.945Z,5.70
2022-08-17T16:28:25.734Z,5.97
2022-08-17T16:31:07.924Z,5.55
2022-08-17T16:33:37.446Z,5.55
2022-08-17T16:36:07.215Z,5.13
2022-08-17T16:38:35.825Z,5.18
2022-08-17T16:41:04.816Z,5.50
2022-08-17T16:43:34.022Z,5.93
2022-08-17T16:46:01.571Z,5.57
2022-08-17T16:48:29.736Z,4.90
2022-08-17T16:51:04.220Z,4.65
2022-08-17T16:53:31.904Z,4.55
2022-08-17T16:55:59.109Z,4.80
2022-08-17T16:58:26.504Z,5.20
2022-08-17T17:00:54.365Z,4.90
2022-08-17T17:03:25.278Z,5.10
2022-08-17T17:06:32.381Z,5.72
2022-08-17T17:09:03.710Z,5.70
2022-08-17T17:11:47.186Z,6.40
2022-08-17T17:14:18.216Z,5.82
2022-08-17T17:16:53.025Z,6.00
2022-08-17T17:19:35.325Z,5.00
2022-08-17T17:22:14.080Z,5.55
2022-08-17T17:25:03.212Z,5.70
2022-08-17T17:27:38.348Z,5.27
2022-08-17T17:30:15.735Z,6.10
2022-08-17T17:32:52.749Z,6.55
2022-08-17T17:35:25.243Z,6.75
2022-08-17T17:37:53.287Z,7.47
2022-08-17T17:40:37.639Z,10.77
2022-08-17T17:43:36.887Z,9.70
2022-08-17T17:46:27.062Z,9.73
2022-08-17T17:48:55.324Z,8.20
2022-08-17T17:52:15.630Z,8.25
2022-08-17T17:54:58.899Z,9.20
2022-08-17T17:58:04.305Z,8.48
2022-08-17T18:00:44.343Z,8.57
2022-08-17T18:06:00.661Z,7.50
2022-08-17T18:08:34.752Z,6.15
2022-08-17T18:11:11.448Z,6.43
2022-08-17T18:14:14.431Z,6.10
2022-08-17T18:16:42.964Z,5.93
2022-08-17T18:19:15.494Z,6.25
2022-08-17T18:21:46.456Z,6.15
2022-08-17T18:24:13.903Z,8.20
2022-08-17T18:26:44.680Z,8.10
2022-08-17T18:29:26.265Z,7.97
2022-08-17T18:32:15.231Z,6.95
2022-08-17T18:34:47.701Z,6.18
2022-08-17T18:37:34.329Z,5.68
2022-08-17T18:40:32.435Z,6.72
2022-08-17T18:43:24.569Z,5.63
2022-08-17T18:45:55.157Z,5.20
2022-08-17T18:48:24.897Z,4.75
2022-08-17T18:50:54.457Z,5.10
2022-08-17T18:53:33.139Z,5.72
2022-08-17T18:56:21.955Z,8.80
2022-08-17T18:59:12.448Z,6.97
2022-08-17T19:02:03.205Z,9.70
2022-08-17T19:04:41.697Z,7.10
2022-08-17T19:07:29.116Z,6.97
2022-08-17T19:10:13.838Z,6.47
2022-08-17T19:12:49.396Z,6.30
2022-08-17T19:15:22.888Z,5.25
2022-08-17T19:18:00.366Z,5.95
2022-08-17T19:20:34.928Z,5.70
2022-08-17T19:23:10.972Z,4.70
2022-08-17T19:25:43.338Z,4.85
2022-08-17T19:28:26.008Z,4.70
2022-08-17T19:31:07.705Z,4.45
2022-08-17T19:33:35.034Z,4.57
2022-08-17T19:36:24.194Z,4.45
2022-08-17T19:39:10.433Z,4.13
2022-08-17T19:42:03.816Z,5.25
2022-08-17T19:44:56.666Z,7.65
2022-08-17T19:47:57.057Z,6.15
2022-08-17T19:50:38.393Z,10.93
2022-08-17T19:54:01.645Z,11.57
2022-08-17T19:56:31.682Z,7.90
2022-08-17T19:59:04.704Z,6.50
2022-08-17T20:01:39.945Z,5.95
2022-08-17T20:04:32.630Z,6.00
2022-08-17T20:07:04.633Z,5.85
2022-08-17T20:09:37.790Z,5.60
2022-08-17T20:12:09.855Z,5.63
2022-08-17T20:14:53.620Z,5.97
2022-08-17T20:17:40.663Z,5.95
2022-08-17T20:20:46.771Z,6.00
2022-08-17T20:23:23.384Z,5.45
2022-08-17T20:26:05.176Z,8.63
2022-08-17T20:28:38.911Z,7.32
2022-08-17T20:31:41.817Z,7.00
2022-08-17T20:34:34.899Z,7.70
2022-08-17T20:37:10.517Z,8.40
2022-08-17T20:39:45.088Z,7.20
2022-08-17T20:42:15.388Z,7.25
2022-08-17T20:44:43.193Z,8.02
2022-08-17T20:47:17.926Z,8.50
2022-08-17T20:49:47.967Z,8.93
2022-08-17T20:54:54.687Z,7.30
2022-08-17T20:57:37.462Z,5.93
2022-08-17T21:00:39.742Z,5.15
2022-08-17T21:03:26.638Z,5.05
2022-08-17T21:06:17.622Z,5.07
2022-08-17T21:08:53.926Z,4.72
2022-08-17T21:11:57.211Z,5.05
2022-08-17T21:14:40.241Z,5.50
2022-08-17T21:17:56.253Z,4.38
2022-08-17T21:20:27.713Z,5.10
2022-08-17T21:23:12.238Z,5.40
2022-08-17T21:26:04.805Z,4.90
2022-08-17T21:28:59.973Z,5.05
2022-08-17T21:31:32.065Z,4.90
2022-08-17T21:34:25.416Z,5.07
2022-08-17T21:36:52.957Z,5.80
2022-08-17T21:39:30.507Z,5.80
2022-08-17T21:42:00.519Z,5.13
2022-08-17T21:44:34.915Z,5.20
2022-08-17T21:47:32.267Z,6.00
2022-08-17T21:50:23.580Z,5.20
2022-08-17T21:52:54.071Z,5.80
2022-08-17T21:55:30.189Z,5.18
2022-08-17T21:58:13.871Z,5.18
2022-08-17T22:00:44.457Z,5.75
2022-08-17T22:03:24.726Z,5.55
2022-08-17T22:05:52.044Z,5.88
2022-08-17T22:08:24.024Z,6.25
2022-08-17T22:11:00.608Z,5.95
2022-08-17T22:13:29.580Z,5.93
2022-08-17T22:16:15.390Z,6.30
2022-08-17T22:18:57.899Z,5.97
2022-08-17T22:21:25.490Z,6.40
2022-08-17T22:24:05.331Z,6.88
2022-08-17T22:27:00.163Z,6.35
2022-08-17T22:29:57.030Z,6.88
2022-08-17T22:32:37.281Z,7.05
2022-08-17T22:35:29.054Z,6.95
2022-08-17T22:37:57.496Z,7.63
2022-08-17T22:40:32.959Z,6.95
2022-08-17T22:43:03.493Z,7.22
2022-08-17T22:45:31.198Z,6.65
2022-08-17T22:48:00.294Z,7.47
2022-08-17T22:50:30.320Z,7.75
2022-08-17T22:53:19.203Z,7.20
2022-08-17T22:56:15.299Z,7.90
2022-08-17T22:59:15.823Z,8.23
2022-08-17T23:01:45.400Z,7.95
2022-08-17T23:04:31.826Z,8.07
2022-08-17T23:06:59.071Z,7.43
2022-08-17T23:09:26.419Z,7.53
2022-08-17T23:11:58.992Z,7.97
2022-08-17T23:14:31.732Z,7.50
2022-08-17T23:17:02.010Z,7.03
2022-08-17T23:21:59.848Z,8.35
2022-08-17T23:24:33.074Z,8.65
2022-08-17T23:27:00.357Z,8.70
2022-08-17T23:29:29.384Z,8.43
2022-08-17T23:31:59.706Z,8.60
2022-08-17T23:36:55.544Z,8.35
2022-08-17T23:39:27.272Z,8.05
2022-08-17T23:41:57.891Z,8.10
2022-08-17T23:44:25.848Z,8.75
2022-08-17T23:46:53.605Z,9.27
2022-08-17T23:49:20.886Z,8.27
2022-08-17T23:51:48.570Z,8.30
2022-08-17T23:54:35.629Z,8.80
2022-08-17T23:57:04.769Z,8.63
2022-08-17T23:59:33.890Z,8.85
